createdAt,value
2022-12-26T00:00:11.988Z,41.13
2022-12-26T00:03:15.470Z,41.45
2022-12-26T00:06:19.046Z,40.42
2022-12-26T00:09:21.994Z,41.34
2022-12-26T00:12:24.876Z,41.64
2022-12-26T00:15:29.038Z,41.60
2022-12-26T00:18:31.793Z,41.41
2022-12-26T00:21:34.870Z,41.75
2022-12-26T00:24:37.672Z,41.45
2022-12-26T00:27:40.459Z,41.52
2022-12-26T00:30:44.593Z,41.94
2022-12-26T00:33:47.477Z,42.06
2022-12-26T00:36:50.219Z,42.38
2022-12-26T00:39:53.134Z,42.56
2022-12-26T00:42:55.917Z,42.45
2022-12-26T00:46:00.182Z,42.85
2022-12-26T00:49:04.355Z,42.74
2022-12-26T00:52:07.159Z,42.91
2022-12-26T00:55:10.293Z,42.67
2022-12-26T00:58:13.005Z,42.74
2022-12-26T01:01:18.882Z,42.71
2022-12-26T01:04:21.792Z,42.78
2022-12-26T01:07:24.516Z,42.59
2022-12-26T01:10:27.365Z,42.48
2022-12-26T01:13:30.081Z,42.52
2022-12-26T01:16:34.264Z,42.63
2022-12-26T01:19:37.010Z,42.46
2022-12-26T01:22:39.873Z,42.44
2022-12-26T01:26:15.045Z,42.48
2022-12-26T01:29:05.585Z,42.49
2022-12-26T01:32:09.761Z,42.44
2022-12-26T01:35:13.621Z,42.55
2022-12-26T01:38:16.401Z,42.50
2022-12-26T01:41:20.398Z,42.47
2022-12-26T01:44:42.168Z,42.45
2022-12-26T01:47:48.053Z,42.39
2022-12-26T01:50:55.380Z,42.27
2022-12-26T01:54:41.420Z,42.41
2022-12-26T01:57:25.504Z,42.27
2022-12-26T02:00:28.866Z,42.49
2022-12-26T02:03:51.001Z,42.51
2022-12-26T02:06:54.027Z,42.50
2022-12-26T02:09:56.893Z,42.56
2022-12-26T02:12:59.724Z,42.48
2022-12-26T02:16:03.232Z,42.47
2022-12-26T02:19:09.785Z,42.57
2022-12-26T02:22:43.263Z,42.58
2022-12-26T02:26:00.877Z,42.54
2022-12-26T02:29:17.694Z,42.57
2022-12-26T02:32:28.720Z,42.60
2022-12-26T02:35:36.828Z,42.33
2022-12-26T02:38:47.724Z,42.44
2022-12-26T02:41:55.865Z,42.58
2022-12-26T02:45:20.002Z,42.44
2022-12-26T02:48:31.932Z,42.44
2022-12-26T02:51:58.166Z,42.61
2022-12-26T02:55:20.547Z,42.66
2022-12-26T02:58:44.011Z,42.47
2022-12-26T03:02:17.024Z,42.41
2022-12-26T03:05:41.671Z,42.48
2022-12-26T03:09:04.478Z,42.28
2022-12-26T03:12:26.432Z,42.14
2022-12-26T03:15:50.866Z,42.07
2022-12-26T03:18:58.890Z,41.98
2022-12-26T03:22:25.873Z,41.82
2022-12-26T03:25:50.936Z,41.45
2022-12-26T03:29:18.722Z,41.34
2022-12-26T03:32:20.843Z,41.48
2022-12-26T03:35:24.868Z,41.19
2022-12-26T03:38:34.364Z,41.10
2022-12-26T03:41:58.626Z,40.93
2022-12-26T03:45:21.916Z,41.06
2022-12-26T03:48:48.472Z,41.07
2022-12-26T03:52:14.034Z,41.41
2022-12-26T03:55:38.614Z,41.41
2022-12-26T03:59:02.032Z,41.32
2022-12-26T04:02:24.092Z,41.36
2022-12-26T04:05:45.182Z,41.22
2022-12-26T04:09:08.217Z,41.22
2022-12-26T04:12:33.210Z,41.01
2022-12-26T04:15:57.914Z,40.92
2022-12-26T04:19:21.517Z,41.00
2022-12-26T04:22:45.424Z,40.96
2022-12-26T04:26:08.402Z,40.84
2022-12-26T04:29:29.896Z,40.93
2022-12-26T04:32:53.849Z,40.72
2022-12-26T04:36:17.948Z,40.79
2022-12-26T04:39:41.138Z,40.80
2022-12-26T04:43:02.545Z,40.93
2022-12-26T04:46:27.214Z,40.87
2022-12-26T04:49:47.692Z,40.79
2022-12-26T04:52:58.918Z,41.07
2022-12-26T04:56:01.887Z,40.88
2022-12-26T04:59:04.769Z,40.91
2022-12-26T05:02:32.430Z,40.94
2022-12-26T05:05:54.996Z,40.76
2022-12-26T05:09:15.336Z,40.93
2022-12-26T05:12:18.161Z,41.12
2022-12-26T05:15:21.013Z,40.86
2022-12-26T05:18:42.775Z,41.06
2022-12-26T05:22:02.867Z,41.08
2022-12-26T05:25:23.299Z,40.80
2022-12-26T05:28:44.258Z,40.85
2022-12-26T05:31:47.042Z,40.75
2022-12-26T05:34:50.243Z,40.99
2022-12-26T05:37:53.006Z,40.54
2022-12-26T05:40:55.705Z,40.63
2022-12-26T05:43:58.441Z,40.72
2022-12-26T05:47:01.261Z,40.81
2022-12-26T05:50:05.764Z,40.40
2022-12-26T05:53:08.549Z,40.62
2022-12-26T05:56:12.618Z,40.71
2022-12-26T05:59:15.315Z,40.64
2022-12-26T06:02:18.205Z,40.65
2022-12-26T06:05:22.652Z,40.73
2022-12-26T06:08:25.475Z,40.61
2022-12-26T06:11:28.204Z,40.59
2022-12-26T06:14:30.991Z,40.59
2022-12-26T06:17:33.807Z,40.69
2022-12-26T06:20:39.390Z,40.56
2022-12-26T06:23:42.389Z,40.41
2022-12-26T06:26:45.114Z,40.32
2022-12-26T06:29:47.787Z,40.52
2022-12-26T06:32:50.574Z,40.29
2022-12-26T06:35:54.741Z,40.44
2022-12-26T06:38:58.049Z,40.54
2022-12-26T06:42:00.782Z,40.48
2022-12-26T06:45:04.512Z,40.34
2022-12-26T06:48:07.484Z,40.50
2022-12-26T06:51:12.587Z,40.46
2022-12-26T06:54:15.347Z,40.54
2022-12-26T06:57:18.119Z,40.66
2022-12-26T07:00:20.929Z,40.60
2022-12-26T07:03:25.936Z,40.74
2022-12-26T07:06:30.909Z,40.76
2022-12-26T07:09:34.250Z,40.88
2022-12-26T07:12:37.033Z,40.90
2022-12-26T07:15:39.755Z,40.87
2022-12-26T07:18:43.128Z,40.91
2022-12-26T07:21:47.227Z,40.96
2022-12-26T07:24:49.927Z,40.88
2022-12-26T07:27:54.229Z,41.17
2022-12-26T07:30:57.555Z,41.10
2022-12-26T07:34:00.283Z,41.19
2022-12-26T07:37:04.635Z,40.97
2022-12-26T07:40:07.918Z,41.20
2022-12-26T07:43:10.708Z,41.04
2022-12-26T07:46:13.530Z,41.07
2022-12-26T07:49:16.463Z,41.31
2022-12-26T07:52:21.463Z,41.16
2022-12-26T07:55:24.294Z,41.10
2022-12-26T07:58:27.090Z,41.30
2022-12-26T08:01:29.875Z,41.19
2022-12-26T08:04:32.773Z,41.13
2022-12-26T08:08:10.918Z,41.12
2022-12-26T08:11:16.504Z,41.14
2022-12-26T08:14:19.260Z,41.38
2022-12-26T08:17:21.990Z,41.06
2022-12-26T08:20:24.832Z,41.37
2022-12-26T08:23:27.907Z,41.27
2022-12-26T08:26:31.993Z,41.64
2022-12-26T08:29:34.754Z,41.44
2022-12-26T08:32:39.522Z,41.42
2022-12-26T08:35:45.273Z,41.68
2022-12-26T08:38:48.197Z,41.61
2022-12-26T08:41:52.298Z,41.41
2022-12-26T08:44:55.112Z,41.39
2022-12-26T08:47:59.499Z,41.58
2022-12-26T08:51:03.107Z,41.40
2022-12-26T08:54:06.042Z,41.19
2022-12-26T08:57:10.156Z,41.26
2022-12-26T09:00:16.194Z,41.08
2022-12-26T09:03:19.094Z,40.87
2022-12-26T09:06:22.339Z,40.64
2022-12-26T09:09:25.110Z,40.76
2022-12-26T09:12:29.379Z,40.71
2022-12-26T09:15:32.257Z,40.46
2022-12-26T09:18:35.285Z,40.43
2022-12-26T09:21:38.042Z,40.23
2022-12-26T09:24:40.844Z,40.47
2022-12-26T09:27:45.643Z,40.48
2022-12-26T09:30:48.515Z,40.18
2022-12-26T09:33:51.345Z,40.12
2022-12-26T09:36:54.111Z,40.30
2022-12-26T09:39:56.880Z,40.14
2022-12-26T09:46:30.320Z,40.20
2022-12-26T09:49:34.041Z,40.33
2022-12-26T09:52:39.705Z,40.08
2022-12-26T09:55:45.920Z,40.08
2022-12-26T09:58:51.231Z,40.19
2022-12-26T10:01:55.530Z,40.00
2022-12-26T10:04:59.273Z,39.98
2022-12-26T10:08:04.752Z,39.76
2022-12-26T10:11:11.702Z,40.18
2022-12-26T10:14:21.650Z,40.11
2022-12-26T10:17:30.362Z,39.92
2022-12-26T10:20:38.044Z,40.03
2022-12-26T10:23:42.057Z,39.92
2022-12-26T10:26:47.202Z,39.81
2022-12-26T10:29:53.632Z,40.11
2022-12-26T10:32:58.819Z,39.97
2022-12-26T10:36:02.185Z,39.74
2022-12-26T10:39:07.089Z,39.86
2022-12-26T10:42:13.091Z,39.84
2022-12-26T10:45:17.292Z,39.86
2022-12-26T10:48:21.544Z,39.88
2022-12-26T10:51:25.298Z,39.89
2022-12-26T10:54:28.875Z,39.90
2022-12-26T10:57:34.051Z,39.99
2022-12-26T11:00:36.775Z,39.86
2022-12-26T11:03:54.733Z,39.98
2022-12-26T11:06:57.976Z,40.03
2022-12-26T11:10:01.051Z,39.89
2022-12-26T11:13:06.060Z,40.01
2022-12-26T11:16:09.688Z,40.06
2022-12-26T11:19:27.451Z,40.16
2022-12-26T11:22:31.605Z,40.48
2022-12-26T11:25:35.871Z,40.33
2022-12-26T11:28:38.672Z,40.59
2022-12-26T11:31:43.159Z,40.51
2022-12-26T11:34:47.398Z,40.52
2022-12-26T11:37:54.615Z,40.55
2022-12-26T11:41:11.260Z,40.92
2022-12-26T11:44:17.714Z,40.92
2022-12-26T11:47:21.783Z,40.83
2022-12-26T11:50:27.089Z,40.99
2022-12-26T11:53:31.926Z,40.96
2022-12-26T11:56:34.618Z,40.91
2022-12-26T11:59:37.618Z,40.75
2022-12-26T12:02:42.012Z,40.90
2022-12-26T15:30:17.497Z,42.64
2022-12-26T15:33:23.508Z,42.30
2022-12-26T15:36:30.282Z,42.22
2022-12-26T15:39:37.050Z,42.02
2022-12-26T15:42:44.633Z,42.05
2022-12-26T15:45:53.500Z,41.72
2022-12-26T15:49:23.818Z,41.58
2022-12-26T15:52:33.495Z,41.56
2022-12-26T15:55:48.136Z,41.35
2022-12-26T15:59:04.249Z,41.55
2022-12-26T16:02:16.168Z,41.40
2022-12-26T16:05:27.877Z,41.41
2022-12-26T16:09:00.550Z,41.35
2022-12-26T16:12:03.576Z,41.35
2022-12-26T16:15:16.080Z,41.19
2022-12-26T16:18:21.451Z,41.24
2022-12-26T16:21:44.632Z,41.18
2022-12-26T16:24:48.325Z,41.17
2022-12-26T16:27:52.285Z,41.15
2022-12-26T16:30:56.642Z,41.13
2022-12-26T16:34:01.394Z,41.35
2022-12-26T16:37:04.331Z,41.28
2022-12-26T16:40:17.928Z,41.19
2022-12-26T16:43:25.110Z,41.07
2022-12-26T16:46:31.123Z,41.01
2022-12-26T16:49:36.036Z,41.02
2022-12-26T16:52:46.415Z,40.98
2022-12-26T16:55:51.483Z,41.03
2022-12-26T16:59:02.748Z,40.96
2022-12-26T17:02:07.616Z,41.06
2022-12-26T17:05:18.679Z,40.96
2022-12-26T17:08:22.090Z,41.13
2022-12-26T17:11:29.657Z,40.87
2022-12-26T17:14:34.122Z,40.97
2022-12-26T17:17:38.049Z,40.79
2022-12-26T17:20:42.323Z,40.72
2022-12-26T17:23:45.107Z,40.70
2022-12-26T17:26:51.592Z,40.76
2022-12-26T17:29:55.562Z,40.67
2022-12-26T17:33:03.054Z,40.68
2022-12-26T17:39:34.719Z,40.36
2022-12-26T17:42:46.656Z,40.37
2022-12-26T17:45:49.967Z,40.56
2022-12-26T17:48:52.704Z,40.61
2022-12-26T17:52:01.701Z,40.62
2022-12-26T17:55:06.412Z,40.57
2022-12-26T17:58:11.899Z,40.68
2022-12-26T18:01:20.721Z,40.76
2022-12-26T18:04:24.351Z,40.99
2022-12-26T18:07:31.454Z,41.02
2022-12-26T18:10:37.241Z,40.62
2022-12-26T18:13:40.252Z,40.73
2022-12-26T18:16:43.217Z,40.72
2022-12-26T18:19:46.235Z,41.17
2022-12-26T18:22:51.927Z,40.49
2022-12-26T18:25:56.405Z,40.85
2022-12-26T18:28:59.191Z,40.95
2022-12-26T18:32:01.934Z,40.90
2022-12-26T18:35:05.153Z,41.26
2022-12-26T18:38:10.019Z,41.21
2022-12-26T18:41:15.062Z,41.17
2022-12-26T18:44:19.325Z,41.04
2022-12-26T18:47:22.572Z,41.42
2022-12-26T18:50:28.053Z,41.38
2022-12-26T18:53:32.256Z,41.56
2022-12-26T18:56:34.975Z,41.91
2022-12-26T18:59:37.747Z,42.01
2022-12-26T19:02:40.553Z,42.35
2022-12-26T19:05:44.056Z,42.82
2022-12-26T19:08:48.244Z,42.94
2022-12-26T19:11:51.041Z,43.18
2022-12-26T19:14:54.155Z,43.03
2022-12-26T19:17:56.937Z,43.24
2022-12-26T19:20:59.722Z,44.53
2022-12-26T19:24:03.910Z,43.96
2022-12-26T19:27:06.632Z,44.03
2022-12-26T19:30:10.043Z,44.43
2022-12-26T19:33:12.860Z,44.18
2022-12-26T19:36:15.922Z,44.32
2022-12-26T19:39:20.187Z,43.97
2022-12-26T19:42:23.007Z,44.09
2022-12-26T19:45:25.842Z,44.08
2022-12-26T19:48:28.786Z,43.50
2022-12-26T19:51:31.587Z,43.48
2022-12-26T19:54:35.770Z,44.24
2022-12-26T19:57:38.599Z,43.78
2022-12-26T20:00:46.204Z,43.47
2022-12-26T20:03:49.013Z,43.73
2022-12-26T20:06:51.742Z,43.80
2022-12-26T20:09:55.937Z,44.02
2022-12-26T20:12:58.683Z,43.69
2022-12-26T20:16:02.120Z,43.64
2022-12-26T20:19:04.920Z,44.02
2022-12-26T20:22:07.851Z,43.55
2022-12-26T20:25:12.027Z,43.43
2022-12-26T20:28:14.768Z,43.42
2022-12-26T20:31:19.325Z,43.59
2022-12-26T20:34:22.212Z,43.32
2022-12-26T20:37:24.955Z,43.31
2022-12-26T20:40:29.177Z,43.27
2022-12-26T20:43:32.627Z,43.20
2022-12-26T20:46:35.921Z,43.27
2022-12-26T20:49:38.741Z,43.16
2022-12-26T20:52:41.483Z,43.03
2022-12-26T20:55:49.671Z,42.97
2022-12-26T20:58:52.493Z,42.77
2022-12-26T21:01:55.230Z,42.47
2022-12-26T21:04:59.910Z,42.44
2022-12-26T21:08:02.655Z,42.58
2022-12-26T21:11:07.782Z,42.15
2022-12-26T21:14:12.261Z,42.01
2022-12-26T21:17:18.772Z,42.00
2022-12-26T21:20:22.101Z,41.95
2022-12-26T21:23:24.884Z,41.72
2022-12-26T21:26:29.326Z,41.73
2022-12-26T21:29:33.288Z,41.58
2022-12-26T21:32:36.112Z,41.58
2022-12-26T21:35:38.905Z,41.47
2022-12-26T21:38:41.959Z,41.63
2022-12-26T21:41:46.073Z,41.45
2022-12-26T21:44:48.848Z,41.59
2022-12-26T21:47:51.663Z,41.47
2022-12-26T21:50:54.544Z,41.54
2022-12-26T21:54:17.331Z,41.55
2022-12-26T21:57:21.803Z,41.22
2022-12-26T22:00:24.791Z,41.34
2022-12-26T22:03:45.307Z,41.37
2022-12-26T22:06:50.163Z,41.42
2022-12-26T22:09:53.590Z,41.29
2022-12-26T22:12:59.768Z,41.25
2022-12-26T22:16:07.591Z,41.33
2022-12-26T22:19:10.509Z,41.29
2022-12-26T22:22:13.250Z,41.19
2022-12-26T22:25:16.246Z,41.29
2022-12-26T22:28:23.554Z,41.15
2022-12-26T22:31:27.699Z,41.09
2022-12-26T22:34:30.586Z,41.24
2022-12-26T22:37:33.315Z,41.26
2022-12-26T22:40:36.107Z,41.15
2022-12-26T22:43:40.641Z,41.17
2022-12-26T22:46:43.472Z,41.07
2022-12-26T22:49:46.283Z,41.32
2022-12-26T22:52:49.102Z,41.17
2022-12-26T22:55:53.200Z,40.96
2022-12-26T22:59:00.626Z,40.96
2022-12-26T23:02:03.684Z,40.83
2022-12-26T23:05:07.153Z,41.03
2022-12-26T23:08:12.077Z,41.16
2022-12-26T23:11:15.180Z,41.06
2022-12-26T23:14:19.585Z,40.88
2022-12-26T23:17:36.697Z,40.86
2022-12-26T23:20:58.411Z,40.93
2022-12-26T23:24:01.139Z,40.70
2022-12-26T23:27:19.529Z,40.93
2022-12-26T23:30:25.617Z,40.75
2022-12-26T23:33:28.343Z,40.70
2022-12-26T23:36:31.066Z,40.68
2022-12-26T23:39:33.856Z,40.58
2022-12-26T23:42:36.703Z,40.57
2022-12-26T23:45:44.182Z,40.87
2022-12-26T23:48:47.937Z,41.15
2022-12-26T23:51:50.772Z,41.42
2022-12-26T23:54:53.564Z,41.37
2022-12-26T23:57:56.747Z,41.50
